Observation data for Knox City on 08/14/2019      Previous  Date  Next       Current Mesonet Observations  Soil Data  Daily Summary Page  Observations in Plain Language
KKN1 140500Z 06007KT 30/20 A3002 RMK A01 T02990201  RH  059%=      5-min Rain = 0
KKN1 140505Z 06008KT 30/20 A3002 RMK A01 T02990201  RH  059%=      5-min Rain = 0
KKN1 140510Z 06008KT 30/20 A3002 RMK A01 T02990202  RH  059%=      5-min Rain = 0
KKN1 140515Z 07008KT 30/20 A3002 RMK A01 T02980202  RH  060%=      5-min Rain = 0
KKN1 140520Z 06010KT 30/20 A3002 RMK A01 T02990202  RH  059%=      5-min Rain = 0
KKN1 140525Z 06010KT 30/20 A3003 RMK A01 T02990202  RH  059%=      5-min Rain = 0
KKN1 140530Z 06010KT 30/20 A3003 RMK A01 T02990202  RH  059%=      5-min Rain = 0
KKN1 140535Z 07009KT 30/20 A3003 RMK A01 T02980202  RH  060%=      5-min Rain = 0
KKN1 140540Z 07009KT 30/20 A3002 RMK A01 T02970202  RH  060%=      5-min Rain = 0
KKN1 140545Z 08009KT 30/20 A3002 RMK A01 T02970202  RH  060%=      5-min Rain = 0
KKN1 140550Z 07009KT 30/20 A3002 RMK A01 T02960202  RH  060%=      5-min Rain = 0
KKN1 140555Z 06009KT 30/20 A3002 RMK A01 T02950202  RH  061%=      5-min Rain = 0
KKN1 140600Z 06008KT 29/20 A3002 RMK A01 T02940202  RH  061%=      5-min Rain = 0
KKN1 140605Z 05008KT 29/20 A3002 RMK A01 T02930202  RH  062%=      5-min Rain = 0
KKN1 140610Z 05008KT 29/20 A3003 RMK A01 T02920202  RH  062%=      5-min Rain = 0
KKN1 140615Z 04008KT 29/20 A3003 RMK A01 T02910201  RH  062%=      5-min Rain = 0
KKN1 140620Z 04009KT 29/20 A3003 RMK A01 T02900201  RH  062%=      5-min Rain = 0
KKN1 140625Z 04008KT 29/20 A3003 RMK A01 T02890201  RH  062%=      5-min Rain = 0
KKN1 140630Z 04008KT 29/20 A3003 RMK A01 T02880200  RH  063%=      5-min Rain = 0
KKN1 140635Z 05008KT 29/20 A3003 RMK A01 T02870201  RH  063%=      5-min Rain = 0
KKN1 140640Z 05008KT 29/20 A3003 RMK A01 T02860201  RH  064%=      5-min Rain = 0
KKN1 140645Z 04007KT 29/20 A3003 RMK A01 T02850201  RH  064%=      5-min Rain = 0
KKN1 140650Z 04008KT 28/20 A3003 RMK A01 T02840201  RH  064%=      5-min Rain = 0
KKN1 140655Z 04008KT 28/20 A3003 RMK A01 T02840201  RH  064%=      5-min Rain = 0
KKN1 140700Z 04008KT 28/20 A3003 RMK A01 T02840201  RH  064%=      5-min Rain = 0
KKN1 140705Z 05007KT 28/20 A3003 RMK A01 T02830201  RH  065%=      5-min Rain = 0
KKN1 140710Z 04008KT 28/20 A3003 RMK A01 T02820200  RH  065%=      5-min Rain = 0
KKN1 140715Z 04008KT 28/20 A3003 RMK A01 T02820198  RH  064%=      5-min Rain = 0
KKN1 140720Z 04006KT 28/20 A3002 RMK A01 T02810198  RH  064%=      5-min Rain = 0
KKN1 140725Z 04005KT 28/20 A3002 RMK A01 T02800198  RH  065%=      5-min Rain = 0
KKN1 140730Z 03005KT 28/20 A3002 RMK A01 T02790197  RH  065%=      5-min Rain = 0
KKN1 140735Z 03006KT 28/20 A3003 RMK A01 T02780197  RH  065%=      5-min Rain = 0
KKN1 140740Z 03006KT 28/20 A3003 RMK A01 T02770196  RH  065%=      5-min Rain = 0
KKN1 140745Z 02008KT 28/20 A3004 RMK A01 T02780196  RH  065%=      5-min Rain = 0
KKN1 140750Z 02009KT 28/20 A3004 RMK A01 T02780196  RH  065%=      5-min Rain = 0
KKN1 140755Z 02009KT 28/20 A3004 RMK A01 T02780196  RH  065%=      5-min Rain = 0
KKN1 140800Z 02009KT 28/20 A3004 RMK A01 T02770196  RH  065%=      5-min Rain = 0
KKN1 140805Z 03010KT 28/20 A3004 RMK A01 T02770195  RH  065%=      5-min Rain = 0
KKN1 140810Z 04007KT 28/20 A3003 RMK A01 T02770195  RH  065%=      5-min Rain = 0
KKN1 140815Z 05007KT 28/20 A3003 RMK A01 T02750195  RH  065%=      5-min Rain = 0
KKN1 140820Z 04008KT 27/20 A3003 RMK A01 T02730195  RH  066%=      5-min Rain = 0
KKN1 140825Z 03010KT 27/20 A3003 RMK A01 T02730195  RH  066%=      5-min Rain = 0
KKN1 140830Z 03010KT 27/19 A3003 RMK A01 T02720194  RH  066%=      5-min Rain = 0
KKN1 140835Z 04011KT 27/19 A3004 RMK A01 T02720194  RH  066%=      5-min Rain = 0
KKN1 140840Z 04011KT 27/19 A3004 RMK A01 T02720194  RH  066%=      5-min Rain = 0
KKN1 140845Z 04011KT 27/19 A3004 RMK A01 T02720194  RH  066%=      5-min Rain = 0
KKN1 140850Z 04012KT 27/19 A3004 RMK A01 T02720194  RH  066%=      5-min Rain = 0
KKN1 140855Z 04011KT 27/20 A3004 RMK A01 T02710195  RH  067%=      5-min Rain = 0
KKN1 140900Z 04011KT 27/20 A3004 RMK A01 T02700195  RH  067%=      5-min Rain = 0
KKN1 140905Z 04010KT 27/20 A3004 RMK A01 T02700196  RH  068%=      5-min Rain = 0
KKN1 140910Z 05009KT 27/20 A3003 RMK A01 T02690197  RH  068%=      5-min Rain = 0
KKN1 140915Z 05009KT 27/20 A3003 RMK A01 T02680197  RH  069%=      5-min Rain = 0
KKN1 140920Z 05009KT 27/20 A3003 RMK A01 T02680197  RH  069%=      5-min Rain = 0
KKN1 140925Z 05009KT 27/20 A3003 RMK A01 T02670197  RH  069%=      5-min Rain = 0
KKN1 140930Z 05010KT 27/20 A3003 RMK A01 T02660198  RH  070%=      5-min Rain = 0
KKN1 140935Z 06008KT 27/20 A3003 RMK A01 T02650198  RH  070%=      5-min Rain = 0
KKN1 140940Z 06008KT 26/20 A3003 RMK A01 T02630199  RH  072%=      5-min Rain = 0
KKN1 140945Z 06009KT 26/20 A3003 RMK A01 T02620201  RH  073%=      5-min Rain = 0
KKN1 140950Z 05010KT 26/20 A3003 RMK A01 T02620202  RH  074%=      5-min Rain = 0
KKN1 140955Z 05010KT 26/20 A3004 RMK A01 T02610203  RH  075%=      5-min Rain = 0
KKN1 141000Z 06010KT 26/20 A3004 RMK A01 T02600203  RH  075%=      5-min Rain = 0
KKN1 141005Z 06010KT 26/20 A3004 RMK A01 T02590203  RH  076%=      5-min Rain = 0
KKN1 141010Z 05010KT 26/20 A3004 RMK A01 T02580203  RH  076%=      5-min Rain = 0
KKN1 141015Z 04011KT 26/20 A3004 RMK A01 T02570202  RH  076%=      5-min Rain = 0
KKN1 141020Z 03010KT 26/20 A3005 RMK A01 T02570201  RH  076%=      5-min Rain = 0
KKN1 141025Z 03011G17KT 26/20 A3005 RMK A01 T02550200  RH  076%=      5-min Rain = 0
KKN1 141030Z 03011KT 25/20 A3005 RMK A01 T02530202  RH  078%=      5-min Rain = 0
KKN1 141035Z 04010G15KT 25/20 A3005 RMK A01 T02520204  RH  079%=      5-min Rain = 0
KKN1 141040Z 04008KT 25/20 A3006 RMK A01 T02510204  RH  080%=      5-min Rain = 0
KKN1 141045Z 04008KT 25/20 A3006 RMK A01 T02500204  RH  080%=      5-min Rain = 0
KKN1 141050Z 04009KT 25/21 A3006 RMK A01 T02480205  RH  081%=      5-min Rain = 0
KKN1 141055Z 04009KT 25/21 A3006 RMK A01 T02470207  RH  083%=      5-min Rain = 0
KKN1 141100Z 04008KT 25/21 A3006 RMK A01 T02470208  RH  084%=      5-min Rain = 0
KKN1 141105Z 02008KT 25/21 A3006 RMK A01 T02460207  RH  084%=      5-min Rain = 0
KKN1 141110Z 02009KT 24/21 A3006 RMK A01 T02440207  RH  085%=      5-min Rain = 0
KKN1 141115Z 03011G16KT 24/21 A3006 RMK A01 T02420207  RH  086%=      5-min Rain = 0
KKN1 141120Z 03012G17KT 24/21 A3007 RMK A01 T02410207  RH  086%=      5-min Rain = 0
KKN1 141125Z 03010KT 24/21 A3007 RMK A01 T02410207  RH  086%=      5-min Rain = 0
KKN1 141130Z 03008KT 24/21 A3007 RMK A01 T02410206  RH  086%=      5-min Rain = 0
KKN1 141135Z 03009KT 24/21 A3008 RMK A01 T02410205  RH  085%=      5-min Rain = 0
KKN1 141140Z 03008KT 24/20 A3008 RMK A01 T02410204  RH  084%=      5-min Rain = 0
KKN1 141145Z 03008KT 24/20 A3008 RMK A01 T02420202  RH  083%=      5-min Rain = 0
KKN1 141150Z 03008KT 24/20 A3008 RMK A01 T02420200  RH  082%=      5-min Rain = 0
KKN1 141155Z 03007KT 24/20 A3008 RMK A01 T02430198  RH  081%=      5-min Rain = 0
KKN1 141200Z 04006KT 24/20 A3008 RMK A01 T02430197  RH  080%=      5-min Rain = 0
KKN1 141205Z 03006KT 24/20 A3007 RMK A01 T02430197  RH  080%=      5-min Rain = 0
KKN1 141210Z 03007KT 24/20 A3007 RMK A01 T02430197  RH  080%=      5-min Rain = 0
KKN1 141215Z 04006KT 24/20 A3008 RMK A01 T02420196  RH  080%=      5-min Rain = 0
KKN1 141220Z 03006KT 24/20 A3008 RMK A01 T02420196  RH  080%=      5-min Rain = 0
KKN1 141225Z 03008KT 24/20 A3008 RMK A01 T02420196  RH  080%=      5-min Rain = 0
KKN1 141230Z 02008KT 24/20 A3009 RMK A01 T02420197  RH  080%=      5-min Rain = 0
KKN1 141235Z 02008KT 24/20 A3009 RMK A01 T02420197  RH  080%=      5-min Rain = 0
KKN1 141240Z 03007KT 24/20 A301 RMK A01 T02430197  RH  080%=      5-min Rain = 0
KKN1 141245Z 02007KT 24/20 A301 RMK A01 T02440197  RH  080%=      5-min Rain = 0
KKN1 141250Z 02007KT 25/20 A301 RMK A01 T02450197  RH  079%=      5-min Rain = 0
KKN1 141255Z 02006KT 25/20 A301 RMK A01 T02460196  RH  078%=      5-min Rain = 0
KKN1 141300Z 03006KT 25/20 A301 RMK A01 T02470196  RH  078%=      5-min Rain = 0
KKN1 141305Z 01008KT 25/20 A301 RMK A01 T02470195  RH  077%=      5-min Rain = 0
KKN1 141310Z 02009KT 25/20 A3011 RMK A01 T02470195  RH  077%=      5-min Rain = 0
KKN1 141315Z 02009KT 25/20 A3011 RMK A01 T02470195  RH  077%=      5-min Rain = 0
KKN1 141320Z 02009KT 25/20 A3012 RMK A01 T02480195  RH  076%=      5-min Rain = 0
KKN1 141325Z 01009KT 25/19 A3012 RMK A01 T02480193  RH  075%=      5-min Rain = 0
KKN1 141330Z 01010KT 25/19 A3012 RMK A01 T02460189  RH  075%=      5-min Rain = 0
KKN1 141335Z 01011KT 24/19 A3012 RMK A01 T02440188  RH  075%=      5-min Rain = 0
KKN1 141340Z 01010KT 25/19 A3012 RMK A01 T02450187  RH  074%=      5-min Rain = 0
KKN1 141345Z 01009G14KT 25/19 A3012 RMK A01 T02460188  RH  074%=      5-min Rain = 0
KKN1 141350Z 02008KT 25/19 A3012 RMK A01 T02480189  RH  074%=      5-min Rain = 0
KKN1 141355Z 02009KT 25/19 A3012 RMK A01 T02490189  RH  073%=      5-min Rain = 0
KKN1 141400Z 01009G14KT 25/19 A3013 RMK A01 T02490190  RH  074%=      5-min Rain = 0
KKN1 141405Z 02011KT 25/19 A3013 RMK A01 T02490190  RH  074%=      5-min Rain = 0
KKN1 141410Z 02008KT 25/19 A3013 RMK A01 T02520191  RH  073%=      5-min Rain = 0
KKN1 141415Z 01009KT 25/19 A3013 RMK A01 T02540192  RH  072%=      5-min Rain = 0
KKN1 141420Z 01009KT 26/19 A3013 RMK A01 T02560193  RH  072%=      5-min Rain = 0
KKN1 141425Z 01009KT 26/19 A3013 RMK A01 T02600193  RH  071%=      5-min Rain = 0
KKN1 141430Z 02008KT 27/20 A3013 RMK A01 T02650195  RH  069%=      5-min Rain = 0
KKN1 141435Z 01008KT 26/20 A3013 RMK A01 T02640195  RH  070%=      5-min Rain = 0
KKN1 141440Z 02009KT 27/20 A3013 RMK A01 T02650196  RH  070%=      5-min Rain = 0
KKN1 141445Z 03008KT 27/20 A3013 RMK A01 T02680198  RH  069%=      5-min Rain = 0
KKN1 141450Z 00008KT 27/20 A3013 RMK A01 T02720198  RH  068%=      5-min Rain = 0
KKN1 141455Z 02008KT 28/20 A3013 RMK A01 T02750198  RH  067%=      5-min Rain = 0
KKN1 141500Z 03007KT 27/20 A3013 RMK A01 T02740197  RH  067%=      5-min Rain = 0
KKN1 141505Z 01007KT 28/20 A3013 RMK A01 T02750198  RH  067%=      5-min Rain = 0
KKN1 141510Z 03007G12KT 28/20 A3014 RMK A01 T02760198  RH  066%=      5-min Rain = 0
KKN1 141515Z 03007KT 28/20 A3014 RMK A01 T02790199  RH  066%=      5-min Rain = 0
KKN1 141520Z 03008KT 28/20 A3014 RMK A01 T02840199  RH  064%=      5-min Rain = 0
KKN1 141525Z 02007KT 29/20 A3013 RMK A01 T02860201  RH  064%=      5-min Rain = 0
KKN1 141530Z 03007KT 29/20 A3013 RMK A01 T02860201  RH  064%=      5-min Rain = 0
KKN1 141535Z 03008KT 29/20 A3014 RMK A01 T02880201  RH  063%=      5-min Rain = 0
KKN1 141540Z 02008KT 29/20 A3013 RMK A01 T02920201  RH  062%=      5-min Rain = 0
KKN1 141545Z 00009KT 29/20 A3013 RMK A01 T02900202  RH  063%=      5-min Rain = 0
KKN1 141550Z 00007KT 29/20 A3013 RMK A01 T02930203  RH  062%=      5-min Rain = 0
KKN1 141555Z 01006KT 30/20 A3013 RMK A01 T02970204  RH  061%=      5-min Rain = 0
KKN1 141600Z 05006KT 30/20 A3013 RMK A01 T02980203  RH  060%=      5-min Rain = 0
KKN1 141605Z 02007KT 30/20 A3013 RMK A01 T03000203  RH  059%=      5-min Rain = 0
KKN1 141610Z 02008KT 30/20 A3013 RMK A01 T03000201  RH  059%=      5-min Rain = 0
KKN1 141615Z 01006KT 30/20 A3013 RMK A01 T03030201  RH  058%=      5-min Rain = 0
KKN1 141620Z 36007KT 31/20 A3013 RMK A01 T03060202  RH  057%=      5-min Rain = 0
KKN1 141625Z 36006KT 31/20 A3013 RMK A01 T03080202  RH  057%=      5-min Rain = 0
KKN1 141630Z 01006G12KT 31/20 A3013 RMK A01 T03090202  RH  056%=      5-min Rain = 0
KKN1 141635Z 02007G12KT 31/20 A3012 RMK A01 T03090201  RH  056%=      5-min Rain = 0
KKN1 141640Z 01004KT 31/20 A3012 RMK A01 T03080201  RH  056%=      5-min Rain = 0
KKN1 141645Z 05008KT 31/20 A3012 RMK A01 T03110200  RH  055%=      5-min Rain = 0
KKN1 141650Z 00006G11KT 31/20 A3012 RMK A01 T03130199  RH  054%=      5-min Rain = 0
KKN1 141655Z 36008KT 31/20 A3012 RMK A01 T03100200  RH  055%=      5-min Rain = 0
KKN1 141700Z 01006G12KT 32/20 A3012 RMK A01 T03180201  RH  053%=      5-min Rain = 0
KKN1 141705Z 03006KT 32/20 A3012 RMK A01 T03150200  RH  054%=      5-min Rain = 0
KKN1 141710Z 04008KT 32/20 A3011 RMK A01 T03190200  RH  053%=      5-min Rain = 0
KKN1 141715Z 05008KT 32/20 A3011 RMK A01 T03190199  RH  052%=      5-min Rain = 0
KKN1 141720Z 03007KT 32/20 A3011 RMK A01 T03190200  RH  052%=      5-min Rain = 0
KKN1 141725Z 01006G11KT 32/20 A301 RMK A01 T03170200  RH  053%=      5-min Rain = 0
KKN1 141730Z 06005G10KT 32/20 A301 RMK A01 T03210201  RH  052%=      5-min Rain = 0
KKN1 141735Z 06006KT 32/20 A301 RMK A01 T03200201  RH  052%=      5-min Rain = 0
KKN1 141740Z 05007KT 33/20 A301 RMK A01 T03280201  RH  050%=      5-min Rain = 0
KKN1 141745Z 05007KT 33/20 A301 RMK A01 T03310200  RH  049%=      5-min Rain = 0
KKN1 141750Z 03008G13KT 33/20 A301 RMK A01 T03310197  RH  048%=      5-min Rain = 0
KKN1 141755Z 03008KT 33/20 A3009 RMK A01 T03310198  RH  048%=      5-min Rain = 0
KKN1 141800Z 06007G13KT 33/20 A3009 RMK A01 T03310198  RH  048%=      5-min Rain = 0
KKN1 141805Z 06011G17KT 34/20 A3009 RMK A01 T03350198  RH  047%=      5-min Rain = 0
KKN1 141810Z 04009G14KT 33/20 A3008 RMK A01 T03340198  RH  047%=      5-min Rain = 0
KKN1 141815Z 04008G13KT 33/20 A3008 RMK A01 T03330196  RH  047%=      5-min Rain = 0
KKN1 141820Z 04009KT 34/20 A3008 RMK A01 T03360196  RH  046%=      5-min Rain = 0
KKN1 141825Z 06009G14KT 34/20 A3007 RMK A01 T03380196  RH  046%=      5-min Rain = 0
KKN1 141830Z 07008G13KT 34/20 A3007 RMK A01 T03380199  RH  047%=      5-min Rain = 0
KKN1 141835Z 07007G13KT 33/20 A3007 RMK A01 T03320195  RH  047%=      5-min Rain = 0
KKN1 141840Z 06010G15KT 34/19 A3007 RMK A01 T03380192  RH  045%=      5-min Rain = 0
KKN1 141845Z 04009KT 34/19 A3006 RMK A01 T03430190  RH  043%=      5-min Rain = 0
KKN1 141850Z 06009G16KT 34/19 A3006 RMK A01 T03410193  RH  044%=      5-min Rain = 0
KKN1 141855Z 07009G14KT 34/19 A3006 RMK A01 T03410193  RH  044%=      5-min Rain = 0
KKN1 141900Z 03007G14KT 34/19 A3006 RMK A01 T03440191  RH  043%=      5-min Rain = 0
KKN1 141905Z 06012G17KT 35/19 A3006 RMK A01 T03460190  RH  042%=      5-min Rain = 0
KKN1 141910Z 03009KT 34/19 A3006 RMK A01 T03440192  RH  043%=      5-min Rain = 0
KKN1 141915Z 07008G13KT 35/19 A3006 RMK A01 T03470190  RH  042%=      5-min Rain = 0
KKN1 141920Z 07011KT 35/19 A3006 RMK A01 T03480190  RH  042%=      5-min Rain = 0
KKN1 141925Z 07010G15KT 35/19 A3006 RMK A01 T03480189  RH  041%=      5-min Rain = 0
KKN1 141930Z 04010G15KT 35/19 A3005 RMK A01 T03530188  RH  040%=      5-min Rain = 0
KKN1 141935Z 04010KT 36/19 A3005 RMK A01 T03550190  RH  040%=      5-min Rain = 0
KKN1 141940Z 06012G17KT 35/19 A3005 RMK A01 T03490190  RH  042%=      5-min Rain = 0
KKN1 141945Z 07010G22KT 35/19 A3005 RMK A01 T03520192  RH  041%=      5-min Rain = 0
KKN1 141950Z 05009G16KT 35/19 A3004 RMK A01 T03510192  RH  042%=      5-min Rain = 0
KKN1 141955Z 04011G17KT 36/19 A3004 RMK A01 T03560191  RH  040%=      5-min Rain = 0
KKN1 142000Z 05009G14KT 35/19 A3004 RMK A01 T03530191  RH  041%=      5-min Rain = 0
KKN1 142005Z 06009G14KT 35/19 A3004 RMK A01 T03520189  RH  041%=      5-min Rain = 0
KKN1 142010Z 04011G17KT 35/19 A3003 RMK A01 T03530185  RH  039%=      5-min Rain = 0
KKN1 142015Z 06011G18KT 35/19 A3003 RMK A01 T03540186  RH  039%=      5-min Rain = 0
KKN1 142020Z 07009KT 35/19 A3002 RMK A01 T03490190  RH  041%=      5-min Rain = 0
KKN1 142025Z 04012KT 36/18 A3002 RMK A01 T03570183  RH  038%=      5-min Rain = 0
KKN1 142030Z 04011KT 36/19 A3002 RMK A01 T03580188  RH  039%=      5-min Rain = 0
KKN1 142035Z 04009KT 36/19 A3001 RMK A01 T03560188  RH  039%=      5-min Rain = 0
KKN1 142040Z 06013G21KT 36/19 A3001 RMK A01 T03570190  RH  040%=      5-min Rain = 0
KKN1 142045Z 07009G15KT 36/19 A3001 RMK A01 T03590192  RH  040%=      5-min Rain = 0
KKN1 142050Z 08011G19KT 36/19 A3001 RMK A01 T03580193  RH  040%=      5-min Rain = 0
KKN1 142055Z 04011KT 36/19 A30 RMK A01 T03610190  RH  039%=      5-min Rain = 0
KKN1 142100Z 07011G16KT 36/19 A30 RMK A01 T03560190  RH  040%=      5-min Rain = 0
KKN1 142105Z 08011KT 36/19 A30 RMK A01 T03590187  RH  038%=      5-min Rain = 0
KKN1 142110Z 09009G15KT 36/19 A30 RMK A01 T03580189  RH  039%=      5-min Rain = 0
KKN1 142115Z 06012KT 36/19 A30 RMK A01 T03590186  RH  038%=      5-min Rain = 0
KKN1 142120Z 05010G15KT 36/18 A2999 RMK A01 T03570182  RH  038%=      5-min Rain = 0
KKN1 142125Z 06010KT 36/19 A2999 RMK A01 T03580185  RH  038%=      5-min Rain = 0
KKN1 142130Z 07010G15KT 36/19 A2999 RMK A01 T03600186  RH  038%=      5-min Rain = 0
KKN1 142135Z 09009G15KT 36/19 A2999 RMK A01 T03580185  RH  038%=      5-min Rain = 0
KKN1 142140Z 07007G12KT 36/19 A2999 RMK A01 T03580187  RH  039%=      5-min Rain = 0
KKN1 142145Z 05011KT 36/18 A2999 RMK A01 T03630181  RH  036%=      5-min Rain = 0
KKN1 142150Z 07009KT 36/18 A2998 RMK A01 T03590181  RH  037%=      5-min Rain = 0
KKN1 142155Z 06012KT 36/18 A2998 RMK A01 T03600175  RH  035%=      5-min Rain = 0
KKN1 142200Z 07008G13KT 36/18 A2998 RMK A01 T03580176  RH  036%=      5-min Rain = 0
KKN1 142205Z 06008G13KT 36/18 A2998 RMK A01 T03590176  RH  036%=      5-min Rain = 0
KKN1 142210Z 08010G15KT 37/17 A2998 RMK A01 T03660174  RH  034%=      5-min Rain = 0
KKN1 142215Z 06011KT 36/18 A2998 RMK A01 T03640176  RH  035%=      5-min Rain = 0
KKN1 142220Z 05008G14KT 36/18 A2998 RMK A01 T03590177  RH  036%=      5-min Rain = 0
KKN1 142225Z 06009G16KT 37/18 A2998 RMK A01 T03650178  RH  035%=      5-min Rain = 0
KKN1 142230Z 07010G16KT 37/18 A2998 RMK A01 T03650181  RH  036%=      5-min Rain = 0
KKN1 142235Z 07008KT 36/19 A2998 RMK A01 T03620186  RH  038%=      5-min Rain = 0
KKN1 142240Z 03011G16KT 36/18 A2998 RMK A01 T03640183  RH  036%=      5-min Rain = 0
KKN1 142245Z 06010KT 36/19 A2998 RMK A01 T03560185  RH  039%=      5-min Rain = 0
KKN1 142250Z 08008KT 36/19 A2998 RMK A01 T03570187  RH  039%=      5-min Rain = 0
KKN1 142255Z 07011KT 36/19 A2998 RMK A01 T03620189  RH  038%=      5-min Rain = 0
KKN1 142300Z 06011KT 36/19 A2998 RMK A01 T03610188  RH  038%=      5-min Rain = 0
KKN1 142305Z 08009KT 36/19 A2999 RMK A01 T03600186  RH  038%=      5-min Rain = 0
KKN1 142310Z 08009KT 35/19 A2998 RMK A01 T03520186  RH  040%=      5-min Rain = 0
KKN1 142315Z 09007KT 35/19 A2998 RMK A01 T03490186  RH  040%=      5-min Rain = 0
KKN1 142320Z 07011G16KT 35/19 A2998 RMK A01 T03520187  RH  040%=      5-min Rain = 0
KKN1 142325Z 07009KT 35/19 A2998 RMK A01 T03480188  RH  041%=      5-min Rain = 0
KKN1 142330Z 07011KT 35/19 A2998 RMK A01 T03510188  RH  040%=      5-min Rain = 0
KKN1 142335Z 07008KT 35/19 A2998 RMK A01 T03510187  RH  040%=      5-min Rain = 0
KKN1 142340Z 06008KT 35/19 A2998 RMK A01 T03540186  RH  039%=      5-min Rain = 0
KKN1 142345Z 08011KT 35/19 A2998 RMK A01 T03530187  RH  040%=      5-min Rain = 0
KKN1 142350Z 08010KT 35/18 A2998 RMK A01 T03520182  RH  039%=      5-min Rain = 0
KKN1 142355Z 06008G13KT 35/18 A2998 RMK A01 T03530184  RH  039%=      5-min Rain = 0
KKN1 150000Z 06008KT 35/18 A2998 RMK A01 T03530183  RH  039%=      5-min Rain = 0
KKN1 150005Z 07008KT 35/18 A2998 RMK A01 T03510184  RH  039%=      5-min Rain = 0
KKN1 150010Z 06010KT 35/19 A2998 RMK A01 T03510185  RH  040%=      5-min Rain = 0
KKN1 150015Z 06009KT 35/19 A2998 RMK A01 T03500187  RH  040%=      5-min Rain = 0
KKN1 150020Z 06008KT 35/19 A2998 RMK A01 T03490185  RH  040%=      5-min Rain = 0
KKN1 150025Z 07009KT 35/19 A2998 RMK A01 T03480186  RH  041%=      5-min Rain = 0
KKN1 150030Z 07008KT 35/18 A2998 RMK A01 T03470184  RH  040%=      5-min Rain = 0
KKN1 150035Z 06008KT 35/18 A2998 RMK A01 T03460184  RH  040%=      5-min Rain = 0
KKN1 150040Z 07008KT 35/18 A2998 RMK A01 T03450184  RH  041%=      5-min Rain = 0
KKN1 150045Z 08009KT 34/18 A2998 RMK A01 T03440182  RH  041%=      5-min Rain = 0
KKN1 150050Z 09008KT 34/19 A2999 RMK A01 T03430185  RH  042%=      5-min Rain = 0
KKN1 150055Z 08008KT 34/18 A2999 RMK A01 T03420184  RH  041%=      5-min Rain = 0
KKN1 150100Z 09009KT 34/19 A2999 RMK A01 T03400187  RH  043%=      5-min Rain = 0
KKN1 150105Z 09009KT 34/19 A2999 RMK A01 T03380187  RH  043%=      5-min Rain = 0
KKN1 150110Z 10007KT 34/19 A30 RMK A01 T03370187  RH  043%=      5-min Rain = 0
KKN1 150115Z 09009KT 34/19 A30 RMK A01 T03350187  RH  044%=      5-min Rain = 0
KKN1 150120Z 09007KT 33/19 A30 RMK A01 T03330188  RH  045%=      5-min Rain = 0
KKN1 150125Z 09007KT 33/19 A30 RMK A01 T03310188  RH  045%=      5-min Rain = 0
KKN1 150130Z 09007KT 33/19 A30 RMK A01 T03300188  RH  046%=      5-min Rain = 0
KKN1 150135Z 09006KT 33/19 A30 RMK A01 T03270188  RH  046%=      5-min Rain = 0
KKN1 150140Z 09006KT 33/19 A3001 RMK A01 T03260188  RH  047%=      5-min Rain = 0
KKN1 150145Z 09006KT 32/19 A3001 RMK A01 T03230188  RH  047%=      5-min Rain = 0
KKN1 150150Z 09006KT 32/19 A3001 RMK A01 T03210187  RH  048%=      5-min Rain = 0
KKN1 150155Z 09005KT 32/19 A3001 RMK A01 T03190187  RH  048%=      5-min Rain = 0
KKN1 150200Z 09006KT 32/19 A3002 RMK A01 T03190186  RH  048%=      5-min Rain = 0
KKN1 150205Z 09006KT 32/19 A3002 RMK A01 T03170187  RH  049%=      5-min Rain = 0
KKN1 150210Z 09006KT 32/19 A3002 RMK A01 T03160186  RH  049%=      5-min Rain = 0
KKN1 150215Z 09006KT 31/19 A3002 RMK A01 T03130186  RH  049%=      5-min Rain = 0
KKN1 150220Z 09006KT 31/19 A3003 RMK A01 T03110186  RH  050%=      5-min Rain = 0
KKN1 150225Z 09006KT 31/19 A3003 RMK A01 T03110187  RH  050%=      5-min Rain = 0
KKN1 150230Z 09006KT 31/19 A3004 RMK A01 T03090186  RH  051%=      5-min Rain = 0
KKN1 150235Z 09006KT 31/19 A3004 RMK A01 T03080187  RH  051%=      5-min Rain = 0
KKN1 150240Z 10006KT 31/19 A3004 RMK A01 T03070187  RH  052%=      5-min Rain = 0
KKN1 150245Z 09006KT 31/19 A3004 RMK A01 T03050188  RH  052%=      5-min Rain = 0
KKN1 150250Z 09006KT 30/19 A3004 RMK A01 T03040188  RH  053%=      5-min Rain = 0
KKN1 150255Z 10006KT 30/19 A3005 RMK A01 T03030188  RH  053%=      5-min Rain = 0
KKN1 150300Z 10006KT 30/19 A3005 RMK A01 T03010189  RH  054%=      5-min Rain = 0
KKN1 150305Z 10006KT 30/19 A3006 RMK A01 T03010189  RH  054%=      5-min Rain = 0
KKN1 150310Z 11006KT 30/19 A3006 RMK A01 T03000189  RH  054%=      5-min Rain = 0
KKN1 150315Z 11006KT 30/19 A3006 RMK A01 T03000189  RH  054%=      5-min Rain = 0
KKN1 150320Z 10006KT 30/19 A3006 RMK A01 T02990190  RH  055%=      5-min Rain = 0
KKN1 150325Z 10006KT 30/19 A3006 RMK A01 T02980190  RH  055%=      5-min Rain = 0
KKN1 150330Z 10007KT 30/19 A3006 RMK A01 T02980190  RH  055%=      5-min Rain = 0
KKN1 150335Z 11006KT 30/19 A3006 RMK A01 T02980189  RH  055%=      5-min Rain = 0
KKN1 150340Z 11006KT 30/19 A3006 RMK A01 T02970189  RH  055%=      5-min Rain = 0
KKN1 150345Z 11006KT 30/19 A3006 RMK A01 T02960189  RH  055%=      5-min Rain = 0
KKN1 150350Z 11007KT 30/19 A3006 RMK A01 T02950189  RH  056%=      5-min Rain = 0
KKN1 150355Z 10008KT 30/19 A3006 RMK A01 T02960190  RH  056%=      5-min Rain = 0
KKN1 150400Z 10009KT 30/19 A3006 RMK A01 T02970191  RH  056%=      5-min Rain = 0
KKN1 150405Z 10008KT 30/19 A3006 RMK A01 T02980191  RH  056%=      5-min Rain = 0
KKN1 150410Z 11008KT 30/19 A3007 RMK A01 T02960191  RH  056%=      5-min Rain = 0
KKN1 150415Z 10008KT 29/19 A3007 RMK A01 T02940191  RH  057%=      5-min Rain = 0
KKN1 150420Z 10009KT 29/19 A3007 RMK A01 T02940192  RH  057%=      5-min Rain = 0
KKN1 150425Z 10008KT 29/19 A3007 RMK A01 T02940193  RH  058%=      5-min Rain = 0
KKN1 150430Z 11009KT 29/19 A3007 RMK A01 T02940193  RH  058%=      5-min Rain = 0
KKN1 150435Z 11008KT 29/19 A3007 RMK A01 T02940193  RH  058%=      5-min Rain = 0
KKN1 150440Z 11008KT 29/19 A3007 RMK A01 T02930193  RH  058%=      5-min Rain = 0
KKN1 150445Z 11007KT 29/19 A3007 RMK A01 T02900193  RH  059%=      5-min Rain = 0
KKN1 150450Z 11007KT 29/19 A3007 RMK A01 T02890193  RH  059%=      5-min Rain = 0
KKN1 150455Z 11008KT 29/19 A3007 RMK A01 T02900193  RH  059%=      5-min Rain = 0

Page generated in 0.009 seconds.